Terminal Aerodrome Forecast
Issued by NWS Indianapolis, IN

Home | Current Version | Previous Version | Text Only | Print | Product List | Glossary On
Versions: 1 2 3 4 5 6 7 8 9 10 11 12 13 14 15 16 17 18 19 20 21 22 23 24 25 26 27 28 29 30
000
FTUS43 KIND 302320
TAFIND
TAF
KIND 302320Z 3100/0106 26018KT 6SM -SHRA VCTS OVC060CB
     FM310100 24010KT P6SM -SHRA OVC060
     FM310500 VRB05KT P6SM VCSH OVC060
     FM310700 VRB06KT P6SM OVC015
     FM311800 28009KT P6SM OVC008
     FM311900 29009KT P6SM OVC010
     FM312300 31011KT P6SM OVC008=

USA.gov is the U.S. government's official web portal to all federal, state and local government web resources and services.